Tisdag 2021-08-03 17:07:42 vecka 31, namnsdag Tage, imorgon Arne, Arnold  [Huvudmeny]   minomax.se   minomax.se/synop   minomax.se/flyg   wwwinfo.se   medd.nu  -  meddelanden   kakor SYNOP-data Visa SYNOP-temperaturer och data
Land: skriv landsbeteckning, 2 bokstäver, tex. se för Sverige. Sök land Sökord: skriv sökord, eller lämna tomt så visas alla Visar SYNOP för SE- Sverige Land/ IATA Id Mätplats Temp Tid Datum region ICAO SYNOP... WMO-nr ----- ------------------------- ----- ----- ---------- ------ --- ---- -----------------... 02013 Ritsem|Akkastugan 10,5 16:00 2021-08-03 SE-BD AAXX 03141 02013 27/84 /2704 10105 20033 39449 40083 52005 72386 333 60005 90710 91108= 02019 Katterjakk|Lapplandia/Air 11,0 16:00 2021-08-03 SE-BD AAXX 03141 02019 25/81 /3104 10110 20047 39476 40079 52004 333 60005 90710 91107= 02022 Abisko/Automated 10,1 14:00 2021-08-03 SE-BD AAXX 03121 02022 47770 80103 10101 20048 39612 40077 55000 7//86 333 86/50 87/56 88/58 90710 91107= 02024 Stora Sjoefallet|Vietas 10,9 16:00 2021-08-03 SE-BD AAXX 03141 02024 47/84 /3210 10109 20036 70082 333 90710 91113= 02029 Tarfala 6,4 16:00 2021-08-03 SE-BD AAXX 03141 02029 46/// /3304 10064 21017 38769 51004 333 90710 91108=
02031 Rensjoen|Rautas 13,4 16:00 2021-08-03 SE-BD AAXX 03141 02031 27/82 /3505 10134 20025 700// 333 60005 90710 91109= 02036 Nikkaluokta/Automated 15,6 16:00 2021-08-03 SE-BD AAXX 03141 02036 27881 73403 10156 20002 39514 40052 52001 700// 333 60005 87/57 90710 91106= 02038 Latnivaara|Ladnivare 12,9 16:00 2021-08-03 SE-BD AAXX 03141 02038 27/84 /0103 10129 20009 700// 333 60005 90710 91108= 02044 Kiruna|Tuolluvaara/Airpor 13,7 15:00 2021-08-03 SE-BD KRN ESNQ AAXX 03131 02044 45884 /3603 10137 20000 39524 40056 57002 333 83/57= 02045 Kiruna|Tuolluvaara/Geofys /// (21:00 2021-08-01) SE-BD AAXX 0119/ 02045 NIL=
02049 Gallivare|Malmberget/Priv 14,2 16:00 2021-08-03 SE-BD GEV ESNG AAXX 03141 02049 27/81 /3404 10142 20001 39633 40051 57002 700// 333 60005 90710 91108= 02055 Naimakka|Siikavuopio 13,2 16:00 2021-08-03 SE-LL AAXX 03141 02055 27884 72905 10132 21003 700// 333 60005 87/58 90710 91108= 02064 Saittarova 15,1 16:00 2021-08-03 SE-BD AAXX 03141 02064 26/// /3502 10151 21010 333 60005 90710 91109= 02072 Porkalompolo|Parkalompolo 14,3 16:00 2021-08-03 SE-BD AAXX 03141 02072 27883 33605 10143 21005 39678 40043 57003 700// 333 60005 83/57 90710 91110= 02081 Karesuando/Airport 14,3 16:00 2021-08-03 SE-BD AAXX 03141 02081 25/63 /0103 10143 20010 39666 40052 57002 333 60005 90710 91107=
02095 Pajala|Kungsstrand 15,9 16:00 2021-08-03 SE-BD AAXX 03141 02095 25780 33406 10159 20003 39838 40031 57006 333 60005 83/56 90710 91112= 02101 Palkem|Björkfors 10,7 16:00 2021-08-03 SE-AC AAXX 03141 02101 45784 /3102 10107 20037 39556 40094 50002 333 87/50= 02102 Stekenjokk|Stikkenjokk 7,6 16:00 2021-08-03 SE-AC AAXX 03141 02102 46/// /3304 10076 20016 333 90710 91110= 02103 Hemavan-Skorvfjalle|Portb 8,2 16:00 2021-08-03 SE-AC AAXX 03141 02103 46/// /3204 10082 20015 333 90710 91107= 02110 Gielas|Svallgonäs 11,1 16:00 2021-08-03 SE-AC AAXX 03141 02110 27/84 /3302 10111 20022 700// 333 60005 90710 91108=
02119 Kvikkjokk Arrenjarka A|Nj 17,3 16:00 2021-08-03 SE-BD AAXX 03141 02119 25883 73103 10173 20017 39696 40062 52002 333 60005 87/57 90710 91109= 02121 Mierkenis|Vuoggatjålme 12,9 (08:00 2021-07-30) SE-BD AAXX 30061 02121 05/84 /1304 10129 20104 39248 49949 57006 69902 333 10167 20120 60005 90710 91107= 02124 Arjeplog|Sakkavare 14,3 16:00 2021-08-03 SE-BD AAXX 03141 02124 25680 23104 10143 20031 39565 40066 52001 333 60005 82/44 90710 91109= 02126 Gunnarn|Bastuträsk/Airpor 15,7 16:00 2021-08-03 SE-AC ESPD AAXX 03141 02126 25782 42805 10157 20047 39745 40068 54000 333 60005 84/56 90710 91109= 02135 Buresjoen 15,6 16:00 2021-08-03 SE-AC AAXX 03141 02135 27782 73204 10156 20021 700// 333 60005 87/50 90710 91108=
02141 Tjakaape|Nausta 12,4 16:00 2021-08-03 SE-BD AAXX 03141 02141 05783 80304 10124 20019 39386 40057 57001 60005 333 60005 88/50 90710 91007 91107= 02147 Malaa-Braennan|Släppträsk 15,3 16:00 2021-08-03 SE-AC AAXX 03141 02147 27/84 /3103 10153 20027 700// 333 60005 90710 91108= 02149 Arvidsjaur|Fjällbonäs 14,3 16:00 2021-08-03 SE-BD AAXX 03141 02149 27784 83305 10143 20005 39610 40055 52001 700// 333 60005 88/56 90710 91109= 02151 Jokkmokk|Koskats/Jokkmokk 15,9 16:00 2021-08-03 SE-BD AAXX 03141 02151 25883 63304 10159 20007 39729 40048 58003 333 60005 86/57 91009 90710 91109 555 60005= 02154 Vidsel|Nästräsk/AFB 16,5 15:00 2021-08-03 SE-BD ESPE AAXX 03131 02154 05883 83507 10165 20014 39840 40053 56003 60005 333 60005 88/57 90710 91010 91110=
02161 Nattavaara 14,3 16:00 2021-08-03 SE-BD AAXX 03141 02161 27884 83304 10143 21011 700// 333 60005 88/57 90710 91110= 02171 Boden|Avaheden/Army Air B 17,1 16:00 2021-08-03 SE-BD ESPG AAXX 03141 02171 05883 23604 10171 20024 30009 40038 56003 60005 333 60005 82/57 90710 91007 91107= 02173 Aelvsbyn|Högheden 17,0 16:00 2021-08-03 SE-BD AAXX 03141 02173 27883 43305 10170 20010 700// 333 60005 84/57 90710 91111= 02174 Lakatraesk|Lakaträsk 15,4 16:00 2021-08-03 SE-BD AAXX 03141 02174 27884 63403 10154 21009 39826 40043 57001 700// 333 60005 86/57 90710 91108= 02176 Ronnskar|Jävrebodarna/Aut 17,9 16:00 2021-08-03 SE- AAXX 03141 02176 27984 03507 10179 20015 700// 333 60005 90710 91114=
02181 Svartbyn|Mjölan/Automated 17,6 16:00 2021-08-03 SE-BD AAXX 03141 02181 27884 13603 10176 20006 39957 40029 57006 700// 333 60005 81/57 90710 91113= 02183 Lulea Sol|Kallax /// 15:00 2021-08-03 SE-BD AAXX 0313/ 02183 333 55310 21942= 02184 Paharova 16,4 16:00 2021-08-03 SE-BD AAXX 03141 02184 27/83 /3302 10164 20023 39769 40035 57006 700// 333 60005 90710 91112= 02186 Kallax|Svartöstaden/Lulea 19,2 16:00 2021-08-03 SE-BD LLA ESPA AAXX 03141 02186 25882 13409 10192 20017 30008 40031 58003 333 60005 81/57 91014 90710 91114 555 60005= 02188 Rodkallen|Storbrändön/Aut 18,6 16:00 2021-08-03 SE- AAXX 03141 02188 27982 13207 10186 20002 700// 333 60005 81/72 90710 91110=
02191 Storoen|Storön 18,5 16:00 2021-08-03 SE- AAXX 03141 02191 27982 03206 10185 20004 700// 333 60005 90710 91112= 02197 Haparanda|Sundholmen/Hapa 18,7 16:00 2021-08-03 SE-BD AAXX 03141 02197 25782 33504 10187 20040 39992 40010 57003 333 60005 82/56 83/64 90710 91112= 02199 Ylinenjaervi|Ylinenjärvi 16,7 16:00 2021-08-03 SE-BD AAXX 03141 02199 27984 03405 10167 20006 700// 333 60005 90710 91111= 02205 Storlien Sol /// (21:00 2021-08-01) SE-Z AAXX 0119/ 02205 NIL= 02207 Storlien-Visjovalen|Visjö 10,2 16:00 2021-08-03 SE-Z AAXX 03141 02207 27584 73203 10102 20034 39429 40114 52002 7818/ 333 69905 81/32 87/37 86/47 90710 91105=
02209 Sylarna|Tjallingen/Automa 6,7 16:00 2021-08-03 SE-Z AAXX 03141 02209 46/// /3002 10067 21003 333 90710 91106= 02210 Blahammaren A|Blåhammaren 6,6 16:00 2021-08-03 SE-Z AAXX 03141 02210 46/// ///// 10066 20011= 02214 Trillevallen|Sefrivatn /// (23:00 2021-08-02) SE-18 AAXX 0221/ 02214 64387A 32560 10229 20102 38549 48543 8523/333 59003 85825= 02219 Gaddede A|Gussvattnet 10,9 16:00 2021-08-03 SE-Z AAXX 03141 02219 27/83 /2904 10109 20040 39451 40099 50003 72382 333 69905 90710 91109= 02221 Korsvattnet|Mjölkvattnet 8,6 16:00 2021-08-03 SE-Z AAXX 03141 02221 27/74 /3306 10086 20042 78182 333 69935 90710 91109=
02226 Ostersund-Åre Airport 13,9 16:00 2021-08-03 SE-Z OSD ESNZ AAXX 03141 02226 45784 /2906 10139 20033 39658 40097 52002 333 81/50= 02229 Östersund Sol|Västerhus /// 15:00 2021-08-03 SE-Z AAXX 0313/ 02229 333 55309 22682= 02230 Gubbhögen/Högbynäs 14,0 16:00 2021-08-03 SE-Z AAXX 03141 02230 27/81 /2904 10140 20032 72386 333 69905 90710 91108= 02231 Föllinge 15,3 16:00 2021-08-03 SE-Z AAXX 03141 02231 27782 43003 10153 20017 700// 333 60005 82/50 84/57 90710 91109= 02236 Hallhåxåsen 13,9 16:00 2021-08-03 SE-Z AAXX 03141 02236 27784 32904 10139 20014 39649 40089 50002 700// 333 60005 83/50 83/50 90710 91107=
02242 Hoting|Andersnäset 13,8 16:00 2021-08-03 SE-Z AAXX 03141 02242 27/80 /3002 10138 20034 7818/ 333 69905 90710 91109= 02243 Krångede|Bölen 16,1 16:00 2021-08-03 SE-Y AAXX 03141 02243 25/84 /3002 10161 20013 39822 40079 54001 333 60005 90710 91106= 02245 Vilhelmina|Dalasjö/Automa 15,1 16:00 2021-08-03 SE-AC AAXX 03141 02245 27/84 /3404 10151 20019 39668 40074 54001 700// 333 60005 90710 91108= 02247 Krangede|Döviken/Automate 15,4 16:00 2021-08-03 SE-Z AAXX 03141 02247 278// 43304 10154 20006 39870 40086 54001 700// 333 60005 84/57 90710 91108= 02254 Åsele/Söråsele 15,8 16:00 2021-08-03 SE-AC AAXX 03141 02254 27780 43003 10158 20026 39713 40071 54001 700// 333 60005 84/56 90710 91108=
02260 Västmarkum|Östmarkum 15,7 16:00 2021-08-03 SE-Y AAXX 03141 02260 27/83 /3103 10157 20020 39907 40075 52006 700// 333 60005 90710 91108= 02261 Lycksele|Hälsingfors 17,0 16:00 2021-08-03 SE-AC AAXX 03141 02261 27/81 /3106 10170 20002 39813 40058 57001 700// 333 60005 90710 91111= 02263 Fredrika|Fristad 16,2 16:00 2021-08-03 SE-AC AAXX 03141 02263 27782 63103 10162 20019 700// 333 60005 86/57 90710 91108= 02265 Hemling 15,2 16:00 2021-08-03 SE-Y AAXX 03141 02265 27884 53203 10152 20028 39852 40067 52005 700// 333 60005 85/58 90710 91107= 02267 Örnskoldsvik/Airport 18,6 16:00 2021-08-03 SE-Y OER ESNO AAXX 03141 02267 45782 /3106 10186 20026 39937 40062 53004 333 86/56 87/58=
02269 Skagsudde|Skeppsmalen/Aut 18,1 16:00 2021-08-03 SE-Y AAXX 03141 02269 25984 03004 10181 20013 333 60005 90710 91109= 02271 Norsjö|Finnäs 15,3 16:00 2021-08-03 SE-AC AAXX 03141 02271 27/84 /3402 10153 20012 39693 40053 52002 700// 333 60005 90710 91109= 02282 Petisträsk 16,0 16:00 2021-08-03 SE-AC AAXX 03141 02282 27884 83302 10160 20019 700// 333 60005 88/57 90710 91107= 02283 Umeå Robacksdalen|Teg /// 15:00 2021-08-03 SE-AC AAXX 0313/ 02283 333 55307 22033 41170= 02284 Järnäsklubb 19,1 16:00 2021-08-03 SE-AC AAXX 03141 02284 27984 03305 10191 20011 30050 40058 52004 700// 333 60005 90710 91109=
02286 Umeå/Airport 18,0 16:00 2021-08-03 SE-AC UME ESNU AAXX 03141 02286 45883 /3205 10180 20025 30047 40055 52006 333 87/57 88/70= 02287 Holmön 19,4 16:00 2021-08-03 SE- AAXX 03141 02287 25982 83402 10194 20074 30043 40052 52006 333 60005 88/58 90710 91105= 02293 Skellefteå/Airport 17,8 16:00 2021-08-03 SE-AC SFT ESNS AAXX 03141 02293 45883 /3304 10178 20024 39989 40045 54002 333 84/57= 02297 Bjuröklubb 19,2 16:00 2021-08-03 SE- AAXX 03141 02297 25984 03604 10192 20062 39999 40042 52002 333 60005 90710 91106= 02307 Idre|Idre Fjäll/Automated 10,0 16:00 2021-08-03 SE-W AAXX 03141 02307 46/// /3103 10100 21018 333 90710 91107=
02308 Tannas|Tännäs/Automated 13,8 16:00 2021-08-03 SE-Z AAXX 03141 02308 25982 02702 10138 21006 39264 40093 52001 333 60005 90710 91105= 02316 Särna 13,6 14:00 2021-08-03 SE-W AAXX 03121 02316 46/// ///// 10136= 02317 Dravagen 12,9 16:00 2021-08-03 SE-Z AAXX 03141 02317 27784 80301 10129 21001 700// 333 60005 88/56 90710 91105= 02319 Börtnan 13,1 16:00 2021-08-03 SE-Z AAXX 03141 02319 27/84 /3402 10131 21008 700// 333 60005 90710 91106= 02321 Älvdalen|Rot 16,4 16:00 2021-08-03 SE-W AAXX 03141 02321 27783 23202 10164 20023 39802 40097 54001 700// 333 60005 82/50 90710 91108=
02325 Klövsjöhöjden|Sångbäcken 10,6 16:00 2021-08-03 SE-Z AAXX 03141 02325 27/84 /3603 10106 20011 39174 40100 52004 700// 333 60005 90710 91105= 02327 Sveg|Sundsätt/Sveg A 15,4 16:00 2021-08-03 SE-Z AAXX 03141 02327 25/84 /3204 10154 21003 39677 40095 54001 333 60005 90710 91106= 02329 Hamra 13,9 16:00 2021-08-03 SE-X AAXX 03141 02329 27/84 /0202 10139 20046 39566 40095 54000 700// 333 60005 90710 91105= 02331 Hunge 13,4 16:00 2021-08-03 SE-Z AAXX 03141 02331 27783 53203 10134 20017 700// 333 60005 85/50 90710 91106= 02338 Edsbyn|Gammelhomna/Automa 17,1 16:00 2021-08-03 SE-X AAXX 03141 02338 27782 73203 10171 20027 39880 40096 54001 700// 333 60005 87/56 90710 91105=
02343 Torpshammar|Rombäck 19,6 (14:00 2021-07-29) SE-Y AAXX 29121 02343 27441 60301 10196 20144 39847 49962 56013 78286 333 60015 81/10 83/45 86/56 90710 91105= 02347 Delsbo|Åkre 16,9 16:00 2021-08-03 SE-X AAXX 03141 02347 27882 43201 10169 20046 30007 40092 52005 700// 333 60005 84/58 90710 91105= 02355 Kuggören|Bålsön/Automated 17,8 16:00 2021-08-03 SE- AAXX 03141 02355 25784 82904 10178 20016 30077 40088 51005 333 60005 81/56 88/58 90710 91107= 02366 Sundsvall|Midlanda/Härnös 17,0 16:00 2021-08-03 SE-Y SDL ESNN AAXX 03141 02366 45884 /2904 10170 20027 30081 40086 51006 333 88/57= 02368 Brämön/Sanna/Automated 17,0 16:00 2021-08-03 SE- AAXX 03141 02368 27884 53205 10170 20048 700// 333 60005 85/57 90710 91108=
02382 Lungö|Uddhamn/Automated 20,5 16:00 2021-08-03 SE- AAXX 03141 02382 27/84 /2804 10205 20017 700// 333 60005 90710 91109= 02403 Naven|Skaven 20,1 16:00 2021-08-03 SE- AAXX 03141 02403 27983 00702 10201 20068 700// 333 60005 90710 91105= 02407 Malung A|Grimsmyrheden 14,9 16:00 2021-08-03 SE-W AAXX 03141 02407 25784 33303 10149 20036 39749 40105 52004 333 60005 81/50 82/56 90710 91106= 02408 Blomskog|Vammerviken/Auto 16,9 16:00 2021-08-03 SE- AAXX 03141 02408 27984 70402 10169 20074 39903 40104 54001 700// 333 60005 87/60 87/64 90710 91105= 02411 Arvika|Långvak 18,2 16:00 2021-08-03 SE-S AAXX 03141 02411 27884 80000 10182 20056 30029 40108 52002 72386 333 69905 84/58 88/61 90710 91102=
02417 Pålgrunden|Tallbacken /// 16:00 2021-08-03 SE-S AAXX 03141 02417 46/// /0603 333 90710 91104= 02418 Karlstad/Airport 18,3 16:00 2021-08-03 SE-S KSD ESSQ AAXX 03141 02418 45784 /2402 10183 20063 39981 40106 54002 333 81/50= 02419 Sookojan|Nolgård /// 15:00 2021-08-03 SE-S AAXX 0313/ 02419 333 55310 22633= 02423 Sunne|Ulvsby 19,0 16:00 2021-08-03 SE-S AAXX 03141 02423 27983 41802 10190 20069 700// 333 60005 84/64 90710 91105= 02426 Gustavsfors 17,4 16:00 2021-08-03 SE-S AAXX 03141 02426 27984 02201 10174 20053 39883 40102 52001 700// 333 60005 90710 91103=
02429 Daglösen|Gränäset 16,7 16:00 2021-08-03 SE-US AAXX 03141 02429 27784 80000 10167 20090 700// 333 60005 88/57 90710 91102= 02431 Kloten 15,8 16:00 2021-08-03 SE-T AAXX 03141 02431 27784 7//// 10158 20029 39772 40104 52004 700// 333 60005 87/50= 02432 Orebro|Tredingskullen/Aut 20,1 16:00 2021-08-03 SE-T AAXX 03141 02432 45783 /3201 10201 20024 30037 40104 52003 333 83/56= 02435 Borlänge|Romme/AFB 16,1 16:00 2021-08-03 SE-W BLE ESSD AAXX 03141 02435 45884 /3202 10161 20050 39922 40102 50004 333 83/57= 02437 Aspa /// 15:00 2021-08-03 SE-U ESQO AAXX 0313/ 02437 333 55300 21387=
02440 Åmot 15,2 16:00 2021-08-03 SE-X AAXX 03141 02440 25883 83502 10152 20045 333 60005 88/56 90710 91105= 02441 Mora|Vinäs 15,9 16:00 2021-08-03 SE-W AAXX 03141 02441 27784 83002 10159 20049 39870 40101 52001 700// 333 60005 82/50 88/58 90710 91105= 02443 Enköping/Åkerby 18,4 16:00 2021-08-03 SE-C AAXX 03141 02443 05883 80202 10184 20069 30073 40102 51006 60005 333 60005 88/56 90710 91006 91106= 02449 Eskilstuna|Flacksta/AB 18,6 16:00 2021-08-03 SE-D EKT ESSU AAXX 03141 02449 27870 33402 10186 20025 30090 40104 52004 700// 333 60005 83/58 83/69 90710 91105= 02450 Eggegrund|Långsand 16,8 16:00 2021-08-03 SE- AAXX 03141 02450 46/// /1001 10168 20062 333 90710 91102=
02452 Kilsbergen-Suttarboda|Sve 16,6 16:00 2021-08-03 SE-T AAXX 03141 02452 25884 73202 10166 20053 333 60005 87/56 90710 91104= 02453 Gävle|Varva/Automated 18,6 16:00 2021-08-03 SE-X AAXX 03141 02453 27882 83502 10186 20036 700// 333 60005 88/58 90710 91106= 02456 Films Kyrkby|Kyrkbyn 17,4 16:00 2021-08-03 SE-C AAXX 03141 02456 25884 73601 10174 20056 30057 40098 52008 333 60005 87/58 90710 91104= 02458 Uppsala|Ärna/AFB 18,0 16:00 2021-08-03 SE-C ESCM AAXX 03141 02458 05883 83504 10180 20049 30076 40100 51008 60005 333 60005 88/57 90710 91006 91107= 02460 Stockholm|Kimsta/Arlanda 16,7 16:00 2021-08-03 SE-AB ARN ESSA AAXX 03141 02460 45884 /3102 10167 20019 30047 40096 57008 333 85/58=
02462 Uppsala Universitet|Almtu 6,1 (15:00 2019-11-20) SE-C AAXX 20141 02462 26/// /1701 10061 20060 30240 40279 333 60005= 02464 Stockholm/Bromma 18,7 16:00 2021-08-03 SE-AB BMA ESSB AAXX 03141 02464 45884 /2805 10187 20030 30084 40101 52009 333 86/57= 02468 Stora Spånsberget|Spånsfä 14,9 16:00 2021-08-03 SE-W AAXX 03141 02468 27/84 /1502 10149 20043 700// 333 60005 90710 91105= 02469 Tullinge|Eklundshov 18,3 16:00 2021-08-03 SE-AB AAXX 03141 02469 25/84 /3204 10183 20041 333 60005 90710 91107= 02476 Floda|Stav/Automated 18,8 16:00 2021-08-03 SE-D AAXX 03141 02476 27884 63303 10188 20023 30066 40105 52005 700// 333 60005 86/57 90710 91106=
02481 Sala|Isätra 19,7 16:00 2021-08-03 SE-U AAXX 03141 02481 27882 72903 10197 20012 30032 40099 51005 700// 333 60005 87/57 90710 91106= 02482 Kerstinbo|Sälja 17,1 16:00 2021-08-03 SE-X AAXX 03141 02482 27784 73603 10171 20030 30032 40099 52007 700// 333 60005 82/56 87/58 90710 91106= 02483 Stockholm Kth|Stocksund/A /// 15:00 2021-08-03 SE-AB AAXX 0313/ 02483 333 55304 21711= 02484 Stockholm|Stocksund/Obser 19,1 16:00 2021-08-03 SE-AB AAXX 03141 02484 46/// ///// 10191 20029 30046 40099 52009= 02485 Stockholm|Stocksund/Autom 0,3 (07:00 2019-10-30) SE-AB AAXX 30061 02485 12/70 82701 10003 21030 30205 40271 60002 333 10037 20007=
02486 Adelsö/Hovgården 19,3 16:00 2021-08-03 SE- AAXX 03141 02486 27/82 /3204 10193 20038 700// 333 60005 90710 91108= 02487 Stavsnäs|Eriksberg/Automa 18,5 16:00 2021-08-03 SE- AAXX 03141 02487 46/// /0503 10185 20067 333 90710 91105= 02488 Örskar|Askskär/Automated 17,6 16:00 2021-08-03 SE- AAXX 03141 02488 27883 20104 10176 20059 30090 40101 51008 700// 333 60005 82/58 90710 91107= 02489 Hårsfjarden|Berga 18,3 16:00 2021-08-03 SE- AAXX 03141 02489 05883 83103 10183 20062 30097 40102 51008 60005 333 60005 88/57 90710 91005 91106= 02490 Svanberga 17,6 16:00 2021-08-03 SE-AB AAXX 03141 02490 27884 83601 10176 20059 30079 40098 52012 700// 333 60005 88/58 90710 91105=
02493 Söderarm|Österäng 15,7 16:00 2021-08-03 SE- AAXX 03141 02493 47884 63506 10157 20094 700// 333 86/58 90710 91110= 02496 Svenska Högarna|Kudoxa/Li 9,8 (08:00 2021-06-01) SE- AAXX 01060 02496 02984 00507 10098 333 10100 20081 31/// 70000= 02498 Svenska Högarna A|Kudoxa 16,7 16:00 2021-08-03 SE- AAXX 03141 02498 25883 60105 10167 20095 30084 40100 52013 333 60005 86/57 90710 91109= 02500 Nordkoster|Nord-Koster 17,7 16:00 2021-08-03 SE- AAXX 03141 02500 25884 53304 10177 20076 30065 40105 54001 333 60005 85/57 90710 91106= 02501 Vaderöarna|Sjöviken 18,1 16:00 2021-08-03 SE- AAXX 03141 02501 46/// /3203 10181 20103 30078 40106 52003 333 90710 91106=
02505 Måseskar|Käringön 17,3 16:00 2021-08-03 SE- AAXX 03141 02505 27978 01903 10173 20102 700// 333 60005 90710 91104= 02513 Göteborg|Torp/Automated 19,0 16:00 2021-08-03 SE- AAXX 03141 02513 26/// /2104 10190 20078 30104 40108 52005 333 60005 90710 91108= 02516 Vinga|Fotö/Lighthouse 17,8 16:00 2021-08-03 SE- AAXX 03141 02516 27980 01806 10178 20101 30083 40105 52002 700// 333 60005 90710 91108= 02518 Nidingen|Vässingsö/Lighth 18,3 16:00 2021-08-03 SE- AAXX 03141 02518 466// 42005 10183 20113 333 84/34 90710 91107= 02520 Såtenas|Såtenäs Villastad 17,9 16:00 2021-08-03 SE- AAXX 03141 02520 25883 80205 10179 20082 30040 40104 50000 333 60005 88/57 91006 90710 91106 555 60005=
02526 Göteborg/Landvetter 17,1 16:00 2021-08-03 SE- GOT ESGG AAXX 03141 02526 45683 /2204 10171 20077 39928 40108 53005 333 81/38= 02536 Rångedala|Vevelhult/Autom 12,8 16:00 2021-08-03 SE- AAXX 03141 02536 27756 80000 10128 20105 39757 40109 52004 7828/ 333 60025 82/50 88/57 90710 91103= 02539 Ullared|Spetsebo 18,2 16:00 2021-08-03 SE-N AAXX 03141 02539 27681 22102 10182 20091 700// 333 60005 82/40 90710 91106= 02540 Kroppefjäll-Grånan|Årbol 18,6 16:00 2021-08-03 SE- AAXX 03141 02540 27882 71601 10186 20052 700// 333 60005 87/58 90710 91103= 02542 Hallum|Hällum 18,5 16:00 2021-08-03 SE- AAXX 03141 02542 27781 80102 10185 20066 30017 40101 54001 700// 333 60005 88/57 90710 91107=
02544 Karlsborg|Gräshult 16,9 16:00 2021-08-03 SE- AAXX 03141 02544 05883 61703 10169 20057 30000 40111 52004 60005 333 60005 86/56 90710 91005 91105= 02545 Axstal|Hanken 17,3 16:00 2021-08-03 SE- AAXX 03141 02545 07809 20000 10173 20100 30006 40110 50003 60005 70511 333 60005 82/56 90710 91001 91101= 02546 Gardsjö|Korterud 18,1 16:00 2021-08-03 SE-T AAXX 03141 02546 27980 00201 10181 20042 39858 40104 52002 700// 333 60005 90710 91105= 02548 Visingsö|Ed 17,9 16:00 2021-08-03 SE-F AAXX 03141 02548 27/82 /0503 10179 20058 700// 333 60005 90710 91104= 02549 Tomtabacken|Stora Åkerhul 16,1 16:00 2021-08-03 SE-F AAXX 03141 02549 27682 83501 10161 20062 700// 333 60005 85/45 88/57 90710 91104=
02550 Jönkoping/Airport 17,8 16:00 2021-08-03 SE-F JKG ESGJ AAXX 03141 02550 45784 /1602 10178 20079 39841 40103 54001 333 85/50= 02552 Malexander|Mo 17,1 16:00 2021-08-03 SE-E AAXX 03141 02552 27984 03401 10171 20030 700// 333 60005 90710 91107= 02554 Kettstaka|Hulta 18,6 16:00 2021-08-03 SE-E AAXX 03141 02554 27984 03003 10186 20023 700// 333 60005 90710 91105= 02556 Hagshult|Hemmershult/AFB 15,2 16:00 2021-08-03 SE-F ESMV AAXX 03141 02556 27680 82303 10152 20142 39910 40110 50000 7826/ 333 69985 86/35 87/47 88/57 90710 91004 91104= 02557 Horn|Äleby 20,3 16:00 2021-08-03 SE-E AAXX 03141 02557 27982 03401 10203 20057 30001 40107 52001 700// 333 60005 90710 91105=
02558 Kolmarden-Strömsfors|Strö 19,1 16:00 2021-08-03 SE-E AAXX 03141 02558 27884 53202 10191 20036 39924 40103 52005 700// 333 60005 85/57 90710 91105= 02559 Gladhammar|Ringsbo 20,0 16:00 2021-08-03 SE-H AAXX 03141 02559 27/83 /3302 10200 20062 700// 333 60005 90710 91105= 02561 Kvarn|Prästtomta 19,9 16:00 2021-08-03 SE-E AAXX 03141 02561 05883 32601 10199 20045 30022 40106 51002 60005 333 60005 83/58 90710 91003 91104= 02562 Linköping|Jägarvallen/Mal 18,5 16:00 2021-08-03 SE-E AAXX 03141 02562 22884 33201 10185 20031 39999 40108 52004 83400 333 60005 83657 91003 90710 91104 555 60005= 02563 Harstena|Missjö 21,2 16:00 2021-08-03 SE- AAXX 03141 02563 25884 21603 10212 20067 30086 40106 52005 333 60005 82/57 90710 91106=
02565 Hultsfred|Målilla/AFB 19,5 16:00 2021-08-03 SE-H HLF ESSF AAXX 03141 02565 25868 83001 10195 20048 39994 40108 52002 333 60005 88/58 90710 91103= 02567 Landsort 19,3 16:00 2021-08-03 SE- AAXX 03141 02567 27883 42803 10193 20046 30081 40104 52007 700// 333 60005 84/58 90710 91104= 02570 Norrköping|Östra Eneby/Br /// (19:00 2020-02-28) SE-E AAXX 28181 02570 10804 10368 20196 30032 40097 60001 81100 333 56100 59005 60007 81827= 02574 Norrköping|Fiskeby 20,6 16:00 2021-08-03 SE-E AAXX 03141 02574 27883 33402 10206 20015 30056 40104 52004 700// 333 60005 83/57 90710 91106= 02575 Ölandsnorraudde|Nabbelund 19,1 16:00 2021-08-03 SE- AAXX 03141 02575 27882 81604 10191 20095 30111 40115 52004 700// 333 60005 88/58 90710 91106=
02587 Fårösund-Ar 18,4 16:00 2021-08-03 SE- AAXX 03141 02587 27984 03105 10184 20077 700// 333 60005 90710 91107= 02589 Gotska Sandön|Lauters 19,0 16:00 2021-08-03 SE- AAXX 03141 02589 27984 03003 10190 20037 30086 40106 52009 700// 333 60005 90710 91106= 02590 Visby/Airport 18,8 16:00 2021-08-03 SE-I VBY ESSV AAXX 03141 02590 25/82 /2903 10188 20047 30057 40116 52009 333 60005 91005 90710 91106 555 60005= 02598 Östergarnsholm|Katthammar 17,7 16:00 2021-08-03 SE- AAXX 03141 02598 46/// /1904 10177 20100 333 90710 91105= 02604 Halmstad|Karlsro/AFB 17,0 14:00 2021-08-03 SE-N HAD ESMT AAXX 03121 02604 45577 /2606 10170 20096 30084 40120 52006 333 83/30=
02605 Hallands|Kalvskärslid/Vad 18,8 16:00 2021-08-03 SE- AAXX 03141 02605 27575 2//// 10188 20106 700// 333 60005 82/30= 02607 Ängelholm|Barkåkra/AFB|F- 17,8 16:00 2021-08-03 SE- ESDB AAXX 03141 02607 45583 /2804 10178 20094 30101 40122 54001 333 82/30= 02611 Helsingborg|Västra Ramlös 17,6 16:00 2021-08-03 SE- AAXX 03141 02611 47/84 /2502 10176 20111 30071 40124 52003 700// 333 90710 91106= 02615 Falsterbo|Falsterbovång/F 17,2 16:00 2021-08-03 SE- AAXX 03141 02615 25784 82506 10172 20110 30126 40131 50003 333 60005 88/50 90710 91107= 02616 Falsterbo|Falsterbovång/L 13,9 (08:00 2021-06-01) SE- AAXX 01060 02616 01/57 73504 10139 20126 30191 40197 53003 71022 85032 333 10171 20129 30/// 70000 85364 87258=
02618 Torup|Torpup|Tranabo/Torp 18,0 16:00 2021-08-03 SE-N AAXX 03141 02618 25/61 /2604 10180 20087 39958 40115 52005 333 60005 90710 91107= 02622 Ljungby|Hovdinge 16,6 16:00 2021-08-03 SE-G AAXX 03141 02622 27782 82602 10166 20090 700// 333 60005 88/50 90710 91106= 02623 Hörby|Slagtofta 16,5 16:00 2021-08-03 SE- AAXX 03141 02623 27582 72601 10165 20110 72386 333 60005 81/21 87/38 90710 91104= 02625 Skillinge|Gislövhammar/Au 18,7 16:00 2021-08-03 SE- AAXX 03141 02625 27882 12505 10187 20089 30119 40125 50002 700// 333 60005 81/57 90710 91110= 02628 Hano|Hanö/Automated 15,9 16:00 2021-08-03 SE- AAXX 03141 02628 27880 22305 10159 20119 700// 333 60005 82/58 90710 91109=
02629 Hästveda|Hästveda 16,5 16:00 2021-08-03 SE- AAXX 03141 02629 27683 72501 10165 20133 30001 40122 51003 7238/ 333 69945 82/41 87/57 90710 91003 91103= 02632 Utklippan|Stenshamn 18,5 16:00 2021-08-03 SE- AAXX 03141 02632 46/// /2403 10185 20131 333 90710 91104= 02635 Malmö|Husie/Automated 18,3 16:00 2021-08-03 SE- AAXX 03141 02635 25/83 /2703 10183 20105 333 60005 90710 91107= 02636 Malmö|Beddinge Läge/Sturu 18,6 16:00 2021-08-03 SE- MMX ESMS AAXX 03141 02636 45684 /2904 10186 20099 30041 40126 52003 333 82/36 88/56= 02644 Ölandssödraudde|Ottenby/A 17,8 16:00 2021-08-03 SE- AAXX 03141 02644 27984 02105 10178 20118 30117 40121 52001 700// 333 60005 90710 91107=
02648 Växjö|Telestad 16,5 16:00 2021-08-03 SE-G AAXX 03141 02648 27/78 /2903 10165 20116 39877 40111 52001 7818/ 333 60005 90710 91106= 02661 Kosta|Lövsjö 16,5 16:00 2021-08-03 SE-G AAXX 03141 02661 07882 82102 10165 20097 39846 40114 51004 60005 70085 333 60005 88/56 90710 91003 91104= 02664 Ronneby|Häggatorp/AFB 18,1 16:00 2021-08-03 SE-K RNB ESDF AAXX 03141 02664 27583 72304 10181 20131 30049 40118 50000 7//85 333 60005 81/33 87/58 91007 90710 91108 555 60005= 02667 Söderstjerna|Drottningskä 18,7 16:00 2021-08-03 SE- AAXX 03141 02667 05881 22406 10187 20136 30118 40121 50001 60005 333 60005 82/57 90710 91009 91109= 02670 Kalmar|Elverslösa/Airport 18,5 16:00 2021-08-03 SE-H ESDC AAXX 03141 02670 46884 /1906 10185 20108 30108 40114 54002 333 83/58=
02679 Hoburg|Burge/Hoburg A 18,0 16:00 2021-08-03 SE-I AAXX 03141 02679 25983 02903 10180 20072 30078 40121 52008 333 60005 90710 91105= (191 rader visades) Du kan lägga till id-beteckningen först på raden i valfri Lista 1 - 5 [top] ↕°C [1] [2] [3] [4] [5] ??? LISTOR 00-nr NOT MEDD MT METAR SYNOP SE SE-AB SE-C SE-D SE-E SE-F SE-G SE-H SE-I SE-K SE-M SE-N SE-O SE-P SE-T SE-U SE-W SE-X SE-Y SE-Z SE-AC SE-BD rådata flyg flyg_osd